sensor_id;sensor_type;location;lat;lon;timestamp;pressure;altitude;pressure_sealevel;temperature;humidity
5609;BME280;2826;51.354;9.588;2023-11-18T00:00:46;98946.16;;;4.11;83.80
5609;BME280;2826;51.354;9.588;2023-11-18T00:03:13;98936.72;;;4.13;83.94
5609;BME280;2826;51.354;9.588;2023-11-18T00:05:39;98944.44;;;4.15;84.37
5609;BME280;2826;51.354;9.588;2023-11-18T00:08:06;98940.16;;;4.15;84.21
5609;BME280;2826;51.354;9.588;2023-11-18T00:10:32;98938.44;;;4.17;84.03
5609;BME280;2826;51.354;9.588;2023-11-18T00:12:59;98940.16;;;4.18;84.23
5609;BME280;2826;51.354;9.588;2023-11-18T00:15:27;98945.28;;;4.22;83.92
5609;BME280;2826;51.354;9.588;2023-11-18T00:17:55;98937.56;;;4.22;84.10
5609;BME280;2826;51.354;9.588;2023-11-18T00:20:21;98935.00;;;4.22;83.65
5609;BME280;2826;51.354;9.588;2023-11-18T00:22:49;98939.28;;;4.23;83.81
5609;BME280;2826;51.354;9.588;2023-11-18T00:25:16;98941.00;;;4.22;83.79
5609;BME280;2826;51.354;9.588;2023-11-18T00:27:43;98937.56;;;4.22;83.98
5609;BME280;2826;51.354;9.588;2023-11-18T00:30:10;98939.31;;;4.21;83.91
5609;BME280;2826;51.354;9.588;2023-11-18T00:32:37;98943.56;;;4.22;83.84
5609;BME280;2826;51.354;9.588;2023-11-18T00:35:06;98948.72;;;4.22;84.12
5609;BME280;2826;51.354;9.588;2023-11-18T00:37:34;98947.84;;;4.22;83.81
5609;BME280;2826;51.354;9.588;2023-11-18T00:40:00;98939.28;;;4.23;84.01
5609;BME280;2826;51.354;9.588;2023-11-18T00:42:27;98940.16;;;4.25;84.00
5609;BME280;2826;51.354;9.588;2023-11-18T00:44:54;98935.00;;;4.25;84.02
5609;BME280;2826;51.354;9.588;2023-11-18T00:47:21;98941.84;;;4.26;84.23
5609;BME280;2826;51.354;9.588;2023-11-18T00:49:48;98947.84;;;4.28;84.09
5609;BME280;2826;51.354;9.588;2023-11-18T00:52:18;98948.69;;;4.27;84.24
5609;BME280;2826;51.354;9.588;2023-11-18T00:54:45;98945.28;;;4.28;84.21
5609;BME280;2826;51.354;9.588;2023-11-18T00:57:12;98945.28;;;4.28;84.51
5609;BME280;2826;51.354;9.588;2023-11-18T00:59:41;98920.50;;;4.11;84.25
5609;BME280;2826;51.354;9.588;2023-11-18T01:02:08;98947.84;;;4.34;84.06
5609;BME280;2826;51.354;9.588;2023-11-18T01:04:34;98916.19;;;4.15;83.99
5609;BME280;2826;51.354;9.588;2023-11-18T01:07:01;98952.97;;;4.36;84.30
5609;BME280;2826;51.354;9.588;2023-11-18T01:09:29;98942.69;;;4.36;84.29
5609;BME280;2826;51.354;9.588;2023-11-18T01:12:02;98946.13;;;4.36;84.35
5609;BME280;2826;51.354;9.588;2023-11-18T01:14:29;98954.69;;;4.40;84.39
5609;BME280;2826;51.354;9.588;2023-11-18T01:16:56;98952.94;;;4.42;84.10
5609;BME280;2826;51.354;9.588;2023-11-18T01:19:23;98958.13;;;4.39;84.14
5609;BME280;2826;51.354;9.588;2023-11-18T01:21:50;98959.81;;;4.37;84.44
5609;BME280;2826;51.354;9.588;2023-11-18T01:24:18;98958.97;;;4.36;84.40
5609;BME280;2826;51.354;9.588;2023-11-18T01:26:47;98969.22;;;4.38;84.46
5609;BME280;2826;51.354;9.588;2023-11-18T01:29:13;98964.94;;;4.38;84.30
5609;BME280;2826;51.354;9.588;2023-11-18T01:31:40;98971.78;;;4.39;84.62
5609;BME280;2826;51.354;9.588;2023-11-18T01:34:07;98974.34;;;4.39;84.62
5609;BME280;2826;51.354;9.588;2023-11-18T01:36:34;98976.06;;;4.42;84.40
5609;BME280;2826;51.354;9.588;2023-11-18T01:39:00;98976.06;;;4.42;84.52
5609;BME280;2826;51.354;9.588;2023-11-18T01:41:30;98978.63;;;4.43;84.47
5609;BME280;2826;51.354;9.588;2023-11-18T01:43:59;98971.78;;;4.39;84.34
5609;BME280;2826;51.354;9.588;2023-11-18T01:46:26;98968.38;;;4.39;84.41
5609;BME280;2826;51.354;9.588;2023-11-18T01:48:56;98976.94;;;4.39;84.40
5609;BME280;2826;51.354;9.588;2023-11-18T01:51:23;98978.66;;;4.36;84.51
5609;BME280;2826;51.354;9.588;2023-11-18T01:53:51;98983.78;;;4.31;84.20
5609;BME280;2826;51.354;9.588;2023-11-18T01:56:18;98982.94;;;4.29;84.53
5609;BME280;2826;51.354;9.588;2023-11-18T01:58:47;98992.34;;;4.28;84.42
5609;BME280;2826;51.354;9.588;2023-11-18T02:01:15;98979.53;;;4.25;84.19
5609;BME280;2826;51.354;9.588;2023-11-18T02:03:43;98984.66;;;4.24;84.19
5609;BME280;2826;51.354;9.588;2023-11-18T02:06:10;98984.66;;;4.19;84.21
5609;BME280;2826;51.354;9.588;2023-11-18T02:08:39;98986.38;;;4.17;84.38
5609;BME280;2826;51.354;9.588;2023-11-18T02:11:15;98986.38;;;4.15;83.93
5609;BME280;2826;51.354;9.588;2023-11-18T02:13:47;98983.78;;;4.12;84.28
5609;BME280;2826;51.354;9.588;2023-11-18T02:16:16;98948.72;;;3.86;84.42
5609;BME280;2826;51.354;9.588;2023-11-18T02:18:45;98986.38;;;4.14;84.32
5609;BME280;2826;51.354;9.588;2023-11-18T02:21:15;98990.66;;;4.12;84.07
5609;BME280;2826;51.354;9.588;2023-11-18T02:23:43;98988.91;;;4.09;84.39
5609;BME280;2826;51.354;9.588;2023-11-18T02:26:20;98988.94;;;4.08;84.17
5609;BME280;2826;51.354;9.588;2023-11-18T02:28:47;98988.94;;;4.06;84.23
5609;BME280;2826;51.354;9.588;2023-11-18T02:31:16;98994.91;;;4.07;84.30
5609;BME280;2826;51.354;9.588;2023-11-18T02:33:54;99003.47;;;4.07;84.03
5609;BME280;2826;51.354;9.588;2023-11-18T02:36:29;99003.47;;;4.09;84.01
5609;BME280;2826;51.354;9.588;2023-11-18T02:39:04;98997.47;;;4.08;84.21
5609;BME280;2826;51.354;9.588;2023-11-18T02:41:34;99001.78;;;4.06;84.02
5609;BME280;2826;51.354;9.588;2023-11-18T02:44:02;98964.13;;;3.83;84.31
5609;BME280;2826;51.354;9.588;2023-11-18T02:46:34;99003.47;;;4.02;84.04
5609;BME280;2826;51.354;9.588;2023-11-18T02:49:01;98999.22;;;3.98;84.17
5609;BME280;2826;51.354;9.588;2023-11-18T02:51:29;98993.19;;;3.95;84.26
5609;BME280;2826;51.354;9.588;2023-11-18T02:53:56;99001.75;;;3.90;84.29
5609;BME280;2826;51.354;9.588;2023-11-18T02:56:24;98997.47;;;3.86;84.21
5609;BME280;2826;51.354;9.588;2023-11-18T02:58:52;98994.03;;;3.81;84.49
5609;BME280;2826;51.354;9.588;2023-11-18T03:01:19;98986.38;;;3.76;84.53
5609;BME280;2826;51.354;9.588;2023-11-18T03:03:46;98973.50;;;3.72;84.50
5609;BME280;2826;51.354;9.588;2023-11-18T03:06:13;98966.66;;;3.69;84.22
5609;BME280;2826;51.354;9.588;2023-11-18T03:08:39;98980.34;;;3.65;84.61
5609;BME280;2826;51.354;9.588;2023-11-18T03:11:07;98984.63;;;3.61;84.57
5609;BME280;2826;51.354;9.588;2023-11-18T03:13:35;98970.91;;;3.58;84.87
5609;BME280;2826;51.354;9.588;2023-11-18T03:16:08;98932.41;;;3.28;84.60
5609;BME280;2826;51.354;9.588;2023-11-18T03:18:38;98969.22;;;3.53;84.50
5609;BME280;2826;51.354;9.588;2023-11-18T03:21:06;98978.59;;;3.42;84.63
5609;BME280;2826;51.354;9.588;2023-11-18T03:23:33;98980.28;;;3.37;84.48
5609;BME280;2826;51.354;9.588;2023-11-18T03:25:59;98986.25;;;3.31;85.04
5609;BME280;2826;51.354;9.588;2023-11-18T03:28:26;98981.97;;;3.25;85.06
5609;BME280;2826;51.354;9.588;2023-11-18T03:30:53;98981.13;;;3.25;84.71
5609;BME280;2826;51.354;9.588;2023-11-18T03:33:22;98981.97;;;3.22;84.76
5609;BME280;2826;51.354;9.588;2023-11-18T03:35:49;98987.91;;;3.20;84.61
5609;BME280;2826;51.354;9.588;2023-11-18T03:38:16;98947.69;;;2.91;84.50
5609;BME280;2826;51.354;9.588;2023-11-18T03:40:43;98986.19;;;3.09;84.38
5609;BME280;2826;51.354;9.588;2023-11-18T03:43:13;98992.16;;;3.02;84.44
5609;BME280;2826;51.354;9.588;2023-11-18T03:45:40;98991.25;;;3.00;84.67
5609;BME280;2826;51.354;9.588;2023-11-18T03:48:07;98995.53;;;2.98;84.65
5609;BME280;2826;51.354;9.588;2023-11-18T03:50:35;98982.72;;;2.95;85.12
5609;BME280;2826;51.354;9.588;2023-11-18T03:53:02;98986.13;;;2.97;85.11
5609;BME280;2826;51.354;9.588;2023-11-18T03:55:29;98981.00;;;2.95;85.03
5609;BME280;2826;51.354;9.588;2023-11-18T03:57:57;98978.44;;;2.92;85.00
5609;BME280;2826;51.354;9.588;2023-11-18T04:00:24;98975.84;;;2.91;85.04
5609;BME280;2826;51.354;9.588;2023-11-18T04:02:55;98976.69;;;2.88;84.91
5609;BME280;2826;51.354;9.588;2023-11-18T04:05:22;98959.56;;;2.79;84.91
5609;BME280;2826;51.354;9.588;2023-11-18T04:07:50;98957.88;;;2.80;85.06
5609;BME280;2826;51.354;9.588;2023-11-18T04:10:17;98957.00;;;2.79;85.26
5609;BME280;2826;51.354;9.588;2023-11-18T04:12:46;98960.41;;;2.77;85.41
5609;BME280;2826;51.354;9.588;2023-11-18T04:15:14;98957.03;;;2.78;85.34
5609;BME280;2826;51.354;9.588;2023-11-18T04:17:41;98951.03;;;2.77;85.32
5609;BME280;2826;51.354;9.588;2023-11-18T04:20:11;98945.88;;;2.68;85.17
5609;BME280;2826;51.354;9.588;2023-11-18T04:22:39;98957.84;;;2.75;85.22
5609;BME280;2826;51.354;9.588;2023-11-18T04:25:08;98957.00;;;2.73;85.33
5609;BME280;2826;51.354;9.588;2023-11-18T04:27:35;98965.53;;;2.72;85.34
5609;BME280;2826;51.354;9.588;2023-11-18T04:30:03;98904.72;;;2.35;85.30
5609;BME280;2826;51.354;9.588;2023-11-18T04:32:30;98954.41;;;2.65;85.27
5609;BME280;2826;51.354;9.588;2023-11-18T04:34:58;98952.69;;;2.63;85.16
5609;BME280;2826;51.354;9.588;2023-11-18T04:37:25;98956.09;;;2.60;85.28
5609;BME280;2826;51.354;9.588;2023-11-18T04:39:52;98954.34;;;2.59;85.13
5609;BME280;2826;51.354;9.588;2023-11-18T04:42:21;98952.63;;;2.58;85.08
5609;BME280;2826;51.354;9.588;2023-11-18T04:44:47;98954.38;;;2.57;85.31
5609;BME280;2826;51.354;9.588;2023-11-18T04:47:14;98956.06;;;2.57;85.33
5609;BME280;2826;51.354;9.588;2023-11-18T04:49:46;98950.91;;;2.55;85.24
5609;BME280;2826;51.354;9.588;2023-11-18T04:52:12;98953.47;;;2.55;85.00
5609;BME280;2826;51.354;9.588;2023-11-18T04:54:39;98954.34;;;2.54;85.20
5609;BME280;2826;51.354;9.588;2023-11-18T04:57:05;98950.88;;;2.52;84.99
5609;BME280;2826;51.354;9.588;2023-11-18T04:59:36;98950.00;;;2.47;85.25
5609;BME280;2826;51.354;9.588;2023-11-18T05:02:02;98944.03;;;2.45;85.23
5609;BME280;2826;51.354;9.588;2023-11-18T05:04:29;98942.31;;;2.41;85.31
5609;BME280;2826;51.354;9.588;2023-11-18T05:06:56;98946.53;;;2.39;85.00
5609;BME280;2826;51.354;9.588;2023-11-18T05:09:22;98948.22;;;2.32;85.21
5609;BME280;2826;51.354;9.588;2023-11-18T05:11:49;98953.31;;;2.30;85.36
5609;BME280;2826;51.354;9.588;2023-11-18T05:14:17;98957.59;;;2.28;85.33
5609;BME280;2826;51.354;9.588;2023-11-18T05:16:46;98953.28;;;2.24;85.20
5609;BME280;2826;51.354;9.588;2023-11-18T05:19:13;98951.59;;;2.25;85.45
5609;BME280;2826;51.354;9.588;2023-11-18T05:21:39;98947.31;;;2.24;85.40
5609;BME280;2826;51.354;9.588;2023-11-18T05:24:07;98944.75;;;2.24;85.40
5609;BME280;2826;51.354;9.588;2023-11-18T05:26:35;98937.06;;;2.20;85.43
5609;BME280;2826;51.354;9.588;2023-11-18T05:29:01;98940.47;;;2.19;85.48
5609;BME280;2826;51.354;9.588;2023-11-18T05:31:28;98925.09;;;2.21;85.37
5609;BME280;2826;51.354;9.588;2023-11-18T05:33:59;98926.84;;;2.22;85.37
5609;BME280;2826;51.354;9.588;2023-11-18T05:36:26;98925.09;;;2.21;85.17
5609;BME280;2826;51.354;9.588;2023-11-18T05:38:53;98919.16;;;2.22;85.27
5609;BME280;2826;51.354;9.588;2023-11-18T05:41:21;98910.59;;;2.20;85.24
5609;BME280;2826;51.354;9.588;2023-11-18T05:43:53;98921.69;;;2.17;85.26
5609;BME280;2826;51.354;9.588;2023-11-18T05:46:23;98921.69;;;2.17;85.29
5609;BME280;2826;51.354;9.588;2023-11-18T05:48:52;98914.00;;;2.16;85.36
5609;BME280;2826;51.354;9.588;2023-11-18T05:51:21;98910.59;;;2.14;85.20
5609;BME280;2826;51.354;9.588;2023-11-18T05:53:48;98916.56;;;2.16;85.28
5609;BME280;2826;51.354;9.588;2023-11-18T05:56:16;98921.66;;;2.13;85.05
5609;BME280;2826;51.354;9.588;2023-11-18T05:58:43;98913.13;;;2.11;84.85
5609;BME280;2826;51.354;9.588;2023-11-18T06:01:10;98921.63;;;2.09;85.11
5609;BME280;2826;51.354;9.588;2023-11-18T06:03:37;98913.94;;;2.08;85.07
5609;BME280;2826;51.354;9.588;2023-11-18T06:06:06;98919.06;;;2.08;84.96
5609;BME280;2826;51.354;9.588;2023-11-18T06:08:36;98931.00;;;2.07;85.29
5609;BME280;2826;51.354;9.588;2023-11-18T06:11:06;98924.16;;;2.06;85.15
5609;BME280;2826;51.354;9.588;2023-11-18T06:13:39;98920.75;;;2.07;85.03
5609;BME280;2826;51.354;9.588;2023-11-18T06:16:09;98922.47;;;2.07;85.20
5609;BME280;2826;51.354;9.588;2023-11-18T06:18:40;98910.50;;;2.03;85.19
5609;BME280;2826;51.354;9.588;2023-11-18T06:21:11;98912.19;;;2.02;85.19
5609;BME280;2826;51.354;9.588;2023-11-18T06:23:40;98915.56;;;1.98;85.35
5609;BME280;2826;51.354;9.588;2023-11-18T06:26:07;98915.56;;;1.95;85.49
5609;BME280;2826;51.354;9.588;2023-11-18T06:31:04;98922.34;;;1.90;85.45
5609;BME280;2826;51.354;9.588;2023-11-18T06:33:36;98927.44;;;1.90;85.82
5609;BME280;2826;51.354;9.588;2023-11-18T06:36:05;98927.44;;;1.90;85.48
5609;BME280;2826;51.354;9.588;2023-11-18T06:38:32;98924.06;;;1.91;85.67
5609;BME280;2826;51.354;9.588;2023-11-18T06:41:01;98913.81;;;1.89;85.52
5609;BME280;2826;51.354;9.588;2023-11-18T06:43:30;98913.84;;;1.91;85.78
5609;BME280;2826;51.354;9.588;2023-11-18T06:46:11;98916.41;;;1.94;85.73
5609;BME280;2826;51.354;9.588;2023-11-18T06:48:39;98924.97;;;1.96;85.95
5609;BME280;2826;51.354;9.588;2023-11-18T06:51:06;98918.16;;;2.00;85.59
5609;BME280;2826;51.354;9.588;2023-11-18T06:53:33;98925.00;;;2.04;86.02
5609;BME280;2826;51.354;9.588;2023-11-18T06:56:01;98924.19;;;2.09;85.66
5609;BME280;2826;51.354;9.588;2023-11-18T06:58:28;98928.50;;;2.15;85.75
5609;BME280;2826;51.354;9.588;2023-11-18T07:00:54;98931.09;;;2.20;85.92
5609;BME280;2826;51.354;9.588;2023-11-18T07:03:21;98935.41;;;2.27;85.90
5609;BME280;2826;51.354;9.588;2023-11-18T07:05:48;98943.06;;;2.30;85.54
5609;BME280;2826;51.354;9.588;2023-11-18T07:08:15;98950.81;;;2.35;85.41
5609;BME280;2826;51.354;9.588;2023-11-18T07:10:41;98950.00;;;2.41;85.58
5609;BME280;2826;51.354;9.588;2023-11-18T07:13:09;98948.31;;;2.46;85.86
5609;BME280;2826;51.354;9.588;2023-11-18T07:15:36;98951.78;;;2.56;85.85
5609;BME280;2826;51.354;9.588;2023-11-18T07:18:03;98956.09;;;2.66;85.43
5609;BME280;2826;51.354;9.588;2023-11-18T07:20:29;98951.88;;;2.73;85.32
5609;BME280;2826;51.354;9.588;2023-11-18T07:22:56;98945.91;;;2.79;85.60
5609;BME280;2826;51.354;9.588;2023-11-18T07:25:23;98959.63;;;2.87;85.46
5609;BME280;2826;51.354;9.588;2023-11-18T07:27:49;98952.78;;;2.91;85.18
5609;BME280;2826;51.354;9.588;2023-11-18T07:30:18;98946.78;;;2.88;84.13
5609;BME280;2826;51.354;9.588;2023-11-18T07:32:45;98945.91;;;2.76;83.49
5609;BME280;2826;51.354;9.588;2023-11-18T07:35:12;98942.41;;;2.58;83.24
5609;BME280;2826;51.354;9.588;2023-11-18T07:37:38;98953.44;;;2.47;83.23
5609;BME280;2826;51.354;9.588;2023-11-18T07:40:06;98961.91;;;2.39;84.19
5609;BME280;2826;51.354;9.588;2023-11-18T07:42:37;98957.59;;;2.30;84.01
5609;BME280;2826;51.354;9.588;2023-11-18T07:45:04;98968.59;;;2.21;84.22
5609;BME280;2826;51.354;9.588;2023-11-18T07:47:44;98959.19;;;2.17;84.98
5609;BME280;2826;51.354;9.588;2023-11-18T07:50:11;98963.47;;;2.16;85.39
5609;BME280;2826;51.354;9.588;2023-11-18T07:52:39;98961.81;;;2.21;85.44
5609;BME280;2826;51.354;9.588;2023-11-18T07:55:06;98972.06;;;2.28;85.52
5609;BME280;2826;51.354;9.588;2023-11-18T07:57:36;98974.69;;;2.34;85.62
5609;BME280;2826;51.354;9.588;2023-11-18T08:00:03;98968.69;;;2.33;85.38
5609;BME280;2826;51.354;9.588;2023-11-18T08:02:38;98968.72;;;2.37;85.35
5609;BME280;2826;51.354;9.588;2023-11-18T08:05:06;98981.50;;;2.35;85.08
5609;BME280;2826;51.354;9.588;2023-11-18T08:07:34;98984.94;;;2.37;85.36
5609;BME280;2826;51.354;9.588;2023-11-18T08:10:02;98993.50;;;2.39;85.20
5609;BME280;2826;51.354;9.588;2023-11-18T08:12:30;98974.69;;;2.34;85.29
5609;BME280;2826;51.354;9.588;2023-11-18T08:14:57;98988.41;;;2.47;85.51
5609;BME280;2826;51.354;9.588;2023-11-18T08:17:24;98986.72;;;2.47;85.52
5609;BME280;2826;51.354;9.588;2023-11-18T08:19:51;98990.13;;;2.50;85.54
5609;BME280;2826;51.354;9.588;2023-11-18T08:22:19;98985.03;;;2.53;85.24
5609;BME280;2826;51.354;9.588;2023-11-18T08:24:48;98978.19;;;2.48;85.07
5609;BME280;2826;51.354;9.588;2023-11-18T08:27:15;98967.09;;;2.51;85.66
5609;BME280;2826;51.354;9.588;2023-11-18T08:29:42;98954.38;;;2.57;85.80
5609;BME280;2826;51.354;9.588;2023-11-18T08:32:08;98951.84;;;2.67;85.66
5609;BME280;2826;51.354;9.588;2023-11-18T08:34:35;98955.28;;;2.78;85.31
5609;BME280;2826;51.354;9.588;2023-11-18T08:37:03;98956.16;;;2.79;84.75
5609;BME280;2826;51.354;9.588;2023-11-18T08:39:31;98959.53;;;2.73;84.90
5609;BME280;2826;51.354;9.588;2023-11-18T08:41:58;98955.28;;;2.70;84.94
5609;BME280;2826;51.354;9.588;2023-11-18T08:44:24;98952.72;;;2.70;85.22
5609;BME280;2826;51.354;9.588;2023-11-18T08:46:52;98958.69;;;2.76;85.47
5609;BME280;2826;51.354;9.588;2023-11-18T08:49:19;98962.97;;;2.72;85.20
5609;BME280;2826;51.354;9.588;2023-11-18T08:51:46;98948.44;;;2.72;85.29
5609;BME280;2826;51.354;9.588;2023-11-18T08:54:15;98947.66;;;2.84;85.46
5609;BME280;2826;51.354;9.588;2023-11-18T08:56:52;98949.38;;;2.93;84.79
5609;BME280;2826;51.354;9.588;2023-11-18T08:59:20;98960.50;;;2.95;84.36
5609;BME280;2826;51.354;9.588;2023-11-18T09:01:50;98950.31;;;3.12;85.29
5609;BME280;2826;51.354;9.588;2023-11-18T09:04:21;98951.22;;;3.29;84.91
5609;BME280;2826;51.354;9.588;2023-11-18T09:06:49;98962.38;;;3.46;84.75
5609;BME280;2826;51.354;9.588;2023-11-18T09:09:17;98967.50;;;3.62;84.92
5609;BME280;2826;51.354;9.588;2023-11-18T09:11:53;98974.38;;;3.77;84.59
5609;BME280;2826;51.354;9.588;2023-11-18T09:14:21;98978.66;;;3.83;83.77
5609;BME280;2826;51.354;9.588;2023-11-18T09:16:50;98980.38;;;3.79;83.52
5609;BME280;2826;51.354;9.588;2023-11-18T09:19:16;98981.22;;;3.64;83.07
5609;BME280;2826;51.354;9.588;2023-11-18T09:21:45;98979.47;;;3.49;82.67
5609;BME280;2826;51.354;9.588;2023-11-18T09:24:11;98973.47;;;3.36;83.03
5609;BME280;2826;51.354;9.588;2023-11-18T09:26:39;98915.25;;;2.97;83.69
5609;BME280;2826;51.354;9.588;2023-11-18T09:29:07;98980.28;;;3.34;83.81
5609;BME280;2826;51.354;9.588;2023-11-18T09:31:34;98980.28;;;3.35;84.92
5609;BME280;2826;51.354;9.588;2023-11-18T09:34:03;98979.44;;;3.39;84.92
5609;BME280;2826;51.354;9.588;2023-11-18T09:36:32;98968.38;;;3.55;85.24
5609;BME280;2826;51.354;9.588;2023-11-18T09:38:59;98959.84;;;3.70;85.44
5609;BME280;2826;51.354;9.588;2023-11-18T09:41:28;98956.44;;;3.94;86.12
5609;BME280;2826;51.354;9.588;2023-11-18T09:43:55;98961.53;;;4.19;85.33
5609;BME280;2826;51.354;9.588;2023-11-18T09:46:29;98949.56;;;4.32;83.93
5609;BME280;2826;51.354;9.588;2023-11-18T09:49:06;98955.53;;;4.43;83.19
5609;BME280;2826;51.354;9.588;2023-11-18T09:51:41;98955.50;;;4.56;83.38
5609;BME280;2826;51.354;9.588;2023-11-18T09:54:18;98958.84;;;4.83;83.45
5609;BME280;2826;51.354;9.588;2023-11-18T09:56:56;98964.78;;;4.97;83.07
5609;BME280;2826;51.354;9.588;2023-11-18T09:59:40;98963.00;;;5.12;82.45
5609;BME280;2826;51.354;9.588;2023-11-18T10:02:12;98947.56;;;5.12;82.04
5609;BME280;2826;51.354;9.588;2023-11-18T10:04:39;98943.34;;;5.03;82.39
5609;BME280;2826;51.354;9.588;2023-11-18T10:07:06;98946.75;;;5.07;83.01
5609;BME280;2826;51.354;9.588;2023-11-18T10:09:35;98934.75;;;5.06;82.66
5609;BME280;2826;51.354;9.588;2023-11-18T10:12:04;98931.25;;;5.16;82.89
5609;BME280;2826;51.354;9.588;2023-11-18T10:14:32;98929.50;;;5.29;82.81
5609;BME280;2826;51.354;9.588;2023-11-18T10:16:59;98925.06;;;5.53;83.05
5609;BME280;2826;51.354;9.588;2023-11-18T10:19:50;98924.09;;;5.67;82.71
5609;BME280;2826;51.354;9.588;2023-11-18T10:22:21;98915.34;;;5.89;82.62
5609;BME280;2826;51.354;9.588;2023-11-18T10:24:49;98912.66;;;6.00;81.73
5609;BME280;2826;51.354;9.588;2023-11-18T10:27:21;98900.59;;;6.12;81.10
5609;BME280;2826;51.354;9.588;2023-11-18T10:29:49;98892.72;;;6.26;80.72
5609;BME280;2826;51.354;9.588;2023-11-18T10:32:17;98889.22;;;6.33;80.46
5609;BME280;2826;51.354;9.588;2023-11-18T10:34:48;98891.81;;;6.28;79.56
5609;BME280;2826;51.354;9.588;2023-11-18T10:37:16;98887.53;;;6.31;79.19
5609;BME280;2826;51.354;9.588;2023-11-18T10:39:46;98874.63;;;6.32;79.74
5609;BME280;2826;51.354;9.588;2023-11-18T10:42:13;98882.41;;;6.27;79.48
5609;BME280;2826;51.354;9.588;2023-11-18T10:44:54;98881.59;;;6.22;79.90
5609;BME280;2826;51.354;9.588;2023-11-18T10:47:23;98887.72;;;6.10;79.69
5609;BME280;2826;51.354;9.588;2023-11-18T10:49:52;98900.69;;;6.04;79.38
5609;BME280;2826;51.354;9.588;2023-11-18T10:52:19;98863.03;;;5.87;79.96
5609;BME280;2826;51.354;9.588;2023-11-18T10:54:52;98882.66;;;6.04;80.48
5609;BME280;2826;51.354;9.588;2023-11-18T10:57:20;98885.28;;;5.93;80.94
5609;BME280;2826;51.354;9.588;2023-11-18T11:00:00;98892.94;;;5.99;81.41
5609;BME280;2826;51.354;9.588;2023-11-18T11:02:31;98893.78;;;6.03;81.79
5609;BME280;2826;51.354;9.588;2023-11-18T11:05:05;98881.72;;;6.08;82.28
5609;BME280;2826;51.354;9.588;2023-11-18T11:07:33;98870.47;;;6.20;81.82
5609;BME280;2826;51.354;9.588;2023-11-18T11:09:59;98861.84;;;6.24;81.77
5609;BME280;2826;51.354;9.588;2023-11-18T11:12:33;98850.56;;;6.35;81.08
5609;BME280;2826;51.354;9.588;2023-11-18T11:15:07;98846.16;;;6.45;80.89
5609;BME280;2826;51.354;9.588;2023-11-18T11:17:40;98839.34;;;6.39;80.08
5609;BME280;2826;51.354;9.588;2023-11-18T11:20:17;98832.47;;;6.39;80.21
5609;BME280;2826;51.354;9.588;2023-11-18T11:23:00;98833.28;;;6.43;79.89
5609;BME280;2826;51.354;9.588;2023-11-18T11:25:41;98837.56;;;6.46;79.61
5609;BME280;2826;51.354;9.588;2023-11-18T11:28:12;98836.75;;;6.42;79.36
5609;BME280;2826;51.354;9.588;2023-11-18T11:30:44;98828.94;;;6.47;79.79
5609;BME280;2826;51.354;9.588;2023-11-18T11:33:16;98820.19;;;6.60;79.54
5609;BME280;2826;51.354;9.588;2023-11-18T11:35:48;98827.03;;;6.63;79.10
5609;BME280;2826;51.354;9.588;2023-11-18T11:38:23;98808.88;;;6.71;79.02
5609;BME280;2826;51.354;9.588;2023-11-18T11:40:52;98800.19;;;6.78;78.59
5609;BME280;2826;51.354;9.588;2023-11-18T11:43:20;98805.16;;;6.92;78.57
5609;BME280;2826;51.354;9.588;2023-11-18T11:45:48;98795.69;;;6.92;78.43
5609;BME280;2826;51.354;9.588;2023-11-18T11:48:17;98781.84;;;6.98;78.64
5609;BME280;2826;51.354;9.588;2023-11-18T11:51:05;98779.25;;;7.01;78.18
5609;BME280;2826;51.354;9.588;2023-11-18T11:53:42;98762.75;;;7.10;77.93
5609;BME280;2826;51.354;9.588;2023-11-18T11:56:12;98755.88;;;7.12;77.59
5609;BME280;2826;51.354;9.588;2023-11-18T11:58:46;98748.16;;;7.09;76.75
5609;BME280;2826;51.354;9.588;2023-11-18T12:01:24;98745.66;;;7.04;77.29
5609;BME280;2826;51.354;9.588;2023-11-18T12:03:56;98747.41;;;7.02;76.83
5609;BME280;2826;51.354;9.588;2023-11-18T12:06:26;98763.78;;;7.01;77.41
5609;BME280;2826;51.354;9.588;2023-11-18T12:08:53;98767.16;;;7.03;77.38
5609;BME280;2826;51.354;9.588;2023-11-18T12:11:20;98779.06;;;7.14;77.44
5609;BME280;2826;51.354;9.588;2023-11-18T12:14:01;98775.56;;;7.16;77.67
5609;BME280;2826;51.354;9.588;2023-11-18T12:17:02;98771.25;;;7.17;76.97
5609;BME280;2826;51.354;9.588;2023-11-18T12:19:35;98764.59;;;7.02;77.51
5609;BME280;2826;51.354;9.588;2023-11-18T12:22:14;98761.94;;;7.08;78.16
5609;BME280;2826;51.354;9.588;2023-11-18T12:28:07;98759.28;;;7.13;78.24
5609;BME280;2826;51.354;9.588;2023-11-18T12:30:41;98744.84;;;7.02;77.80
5609;BME280;2826;51.354;9.588;2023-11-18T12:33:17;98758.47;;;7.11;77.74
5609;BME280;2826;51.354;9.588;2023-11-18T12:39:25;98761.81;;;7.16;77.97
5609;BME280;2826;51.354;9.588;2023-11-18T12:42:02;98754.88;;;7.19;77.44
5609;BME280;2826;51.354;9.588;2023-11-18T12:44:37;98758.28;;;7.22;77.74
5609;BME280;2826;51.354;9.588;2023-11-18T12:47:08;98750.47;;;7.25;77.44
5609;BME280;2826;51.354;9.588;2023-11-18T12:49:44;98751.34;;;7.25;76.94
5609;BME280;2826;51.354;9.588;2023-11-18T12:52:15;98747.13;;;7.19;77.63
5609;BME280;2826;51.354;9.588;2023-11-18T12:54:46;98737.72;;;7.17;77.83
5609;BME280;2826;51.354;9.588;2023-11-18T12:57:16;98744.63;;;7.16;77.97
5609;BME280;2826;51.354;9.588;2023-11-18T12:59:43;98743.75;;;7.17;77.82
5609;BME280;2826;51.354;9.588;2023-11-18T13:02:11;98731.78;;;7.13;77.91
5609;BME280;2826;51.354;9.588;2023-11-18T13:04:44;98736.03;;;7.16;78.34
5609;BME280;2826;51.354;9.588;2023-11-18T13:07:13;98736.00;;;7.17;78.46
5609;BME280;2826;51.354;9.588;2023-11-18T13:09:40;98731.72;;;7.16;78.80
5609;BME280;2826;51.354;9.588;2023-11-18T13:12:11;98734.31;;;7.16;79.04
5609;BME280;2826;51.354;9.588;2023-11-18T13:14:41;98721.47;;;7.13;79.14
5609;BME280;2826;51.354;9.588;2023-11-18T13:17:09;98706.97;;;7.04;78.92
5609;BME280;2826;51.354;9.588;2023-11-18T13:19:37;98713.72;;;7.13;79.04
5609;BME280;2826;51.354;9.588;2023-11-18T13:22:05;98706.88;;;7.12;79.50
5609;BME280;2826;51.354;9.588;2023-11-18T13:24:33;98700.84;;;7.12;79.50
5609;BME280;2826;51.354;9.588;2023-11-18T13:27:00;98691.38;;;7.12;79.67
5609;BME280;2826;51.354;9.588;2023-11-18T13:29:30;98683.69;;;7.09;79.82
5609;BME280;2826;51.354;9.588;2023-11-18T13:31:58;98632.69;;;6.76;79.60
5609;BME280;2826;51.354;9.588;2023-11-18T13:34:29;98670.81;;;7.09;79.99
5609;BME280;2826;51.354;9.588;2023-11-18T13:36:58;98661.38;;;7.08;80.05
5609;BME280;2826;51.354;9.588;2023-11-18T13:39:25;98658.78;;;7.08;79.78
5609;BME280;2826;51.354;9.588;2023-11-18T13:41:53;98653.69;;;7.03;80.24
5609;BME280;2826;51.354;9.588;2023-11-18T13:44:34;98664.88;;;7.04;80.33
5609;BME280;2826;51.354;9.588;2023-11-18T13:47:04;98657.19;;;7.01;80.17
5609;BME280;2826;51.354;9.588;2023-11-18T13:49:31;98653.81;;;6.97;80.52
5609;BME280;2826;51.354;9.588;2023-11-18T13:51:58;98634.13;;;6.93;80.66